Time;durP1;ratioP1;P1;durP2;ratioP2;P2;SDS_P1;SDS_P2;PMS_P1;PMS_P2;Temp;Humidity;BMP_temperature;BMP_pressure;BME280_temperature;BME280_humidity;BME280_pressure;Samples;Min_cycle;Max_cycle;Signal;HPM_P1;HPM_P2
2024/02/26 00:00:52;;;;;;;16.77;9.65;;;4.30;99.90;;;;;;4992906;28;20038;-76
2024/02/26 00:03:19;;;;;;;14.25;12.20;;;4.40;99.90;;;;;;4992766;28;20518;-76
2024/02/26 00:05:46;;;;;;;15.88;9.05;;;4.40;99.90;;;;;;4992730;28;20046;-76
2024/02/26 00:08:13;;;;;;;15.50;10.73;;;4.40;99.90;;;;;;4992566;28;20050;-76
2024/02/26 00:10:40;;;;;;;14.32;9.18;;;4.60;99.90;;;;;;4992648;28;20069;-76
2024/02/26 00:13:07;;;;;;;16.50;10.27;;;4.50;99.90;;;;;;4992470;28;20046;-76
2024/02/26 00:15:35;;;;;;;14.57;9.35;;;4.50;99.90;;;;;;4976225;28;20069;-76
2024/02/26 00:18:02;;;;;;;15.93;9.27;;;4.70;99.90;;;;;;4992302;28;20125;-76
2024/02/26 00:20:29;;;;;;;17.08;10.30;;;4.60;99.90;;;;;;4993810;28;20038;-76
2024/02/26 00:22:56;;;;;;;15.02;9.27;;;4.60;99.90;;;;;;4992615;28;20070;-76
2024/02/26 00:25:23;;;;;;;14.13;9.73;;;4.60;99.90;;;;;;4993641;28;20109;-76
2024/02/26 00:27:50;;;;;;;15.20;9.00;;;4.60;99.90;;;;;;4993744;28;20109;-76
2024/02/26 00:30:17;;;;;;;16.27;8.70;;;4.80;99.90;;;;;;5025010;28;20130;-76
2024/02/26 00:32:44;;;;;;;16.33;8.77;;;4.60;99.90;;;;;;4992360;28;20101;-76
2024/02/26 00:35:11;;;;;;;17.75;9.95;;;4.50;99.90;;;;;;4991982;28;20108;-76
2024/02/26 00:37:38;;;;;;;16.85;11.68;;;4.50;99.90;;;;;;4992221;28;20373;-76
2024/02/26 00:40:07;;;;;;;13.90;9.50;;;4.60;99.90;;;;;;5024567;28;20038;-76
2024/02/26 00:42:33;;;;;;;16.40;10.05;;;4.30;99.90;;;;;;4960232;28;20077;-76
2024/02/26 00:45:00;;;;;;;16.67;10.40;;;4.30;99.90;;;;;;4993101;28;20096;-76
2024/02/26 00:47:27;;;;;;;17.30;10.48;;;4.40;99.90;;;;;;4975872;28;20046;-76
2024/02/26 00:49:55;;;;;;;13.10;8.57;;;4.10;99.90;;;;;;4976041;28;20046;-76
2024/02/26 00:52:22;;;;;;;17.80;9.93;;;4.10;99.90;;;;;;4991788;28;20141;-76
2024/02/26 00:54:49;;;;;;;16.88;8.85;;;4.00;99.90;;;;;;4992025;28;20043;-76
2024/02/26 00:57:16;;;;;;;16.13;9.20;;;3.90;99.90;;;;;;4975699;28;20101;-76
2024/02/26 00:59:43;;;;;;;16.48;11.50;;;3.90;99.90;;;;;;4991958;28;20478;-76
2024/02/26 01:02:10;;;;;;;17.92;10.55;;;3.90;99.90;;;;;;4991805;28;20042;-76
2024/02/26 01:04:37;;;;;;;15.70;9.38;;;3.80;99.90;;;;;;5024487;28;20097;-75
2024/02/26 01:07:03;;;;;;;16.88;12.55;;;3.80;99.90;;;;;;4991443;28;20412;-76
2024/02/26 01:09:31;;;;;;;19.15;10.63;;;3.80;99.90;;;;;;5008147;28;20046;-76
2024/02/26 01:11:58;;;;;;;13.15;7.60;;;3.70;99.90;;;;;;5024477;28;20053;-76
2024/02/26 01:14:25;;;;;;;19.45;11.15;;;3.70;99.90;;;;;;4992770;28;20117;-76
2024/02/26 01:16:52;;;;;;;21.35;10.52;;;3.70;99.90;;;;;;5008139;28;20043;-76
2024/02/26 01:19:19;;;;;;;19.15;9.38;;;3.70;99.90;;;;;;4992826;28;20047;-76
2024/02/26 01:21:46;;;;;;;16.45;9.30;;;3.60;99.90;;;;;;4991737;28;20045;-76
2024/02/26 01:24:13;;;;;;;15.23;10.15;;;3.60;99.90;;;;;;4991357;28;20486;-75
2024/02/26 01:26:40;;;;;;;19.77;9.95;;;3.60;99.90;;;;;;4991768;28;20534;-76
2024/02/26 01:29:07;;;;;;;22.70;10.48;;;3.60;99.90;;;;;;4995444;28;20066;-76
2024/02/26 01:31:34;;;;;;;22.00;11.52;;;3.50;99.90;;;;;;4996934;28;20491;-76
2024/02/26 01:34:01;;;;;;;22.85;10.65;;;3.50;99.90;;;;;;4995602;28;20050;-76
2024/02/26 01:36:28;;;;;;;21.42;11.25;;;3.40;99.90;;;;;;5028319;28;20046;-76
2024/02/26 01:38:55;;;;;;;25.92;12.00;;;3.40;99.90;;;;;;4979484;28;20119;-76
2024/02/26 01:41:22;;;;;;;15.88;9.43;;;3.40;99.90;;;;;;5011798;28;20042;-76
2024/02/26 01:43:49;;;;;;;23.30;12.32;;;3.40;99.90;;;;;;4995532;28;20104;-76
2024/02/26 01:46:17;;;;;;;30.33;13.88;;;3.40;99.90;;;;;;5011644;28;20082;-76
2024/02/26 01:48:47;;;;;;;30.77;13.18;;;3.40;99.90;;;;;;4995734;28;20137;-76
2024/02/26 01:51:15;;;;;;;21.95;10.55;;;3.40;99.90;;;;;;4995045;28;20058;-76
2024/02/26 01:53:43;;;;;;;25.80;13.15;;;3.40;99.90;;;;;;4995124;28;20046;-76
2024/02/26 01:56:10;;;;;;;27.60;11.88;;;3.30;99.90;;;;;;4978918;28;20042;-76
2024/02/26 01:58:37;;;;;;;26.23;12.07;;;3.60;99.90;;;;;;4995246;28;20047;-76
2024/02/26 02:01:05;;;;;;;23.63;11.15;;;3.30;99.90;;;;;;4995270;28;20104;-76
2024/02/26 02:03:32;;;;;;;14.65;7.65;;;3.40;99.90;;;;;;4994957;28;20048;-75
2024/02/26 02:05:59;;;;;;;19.60;10.23;;;3.40;99.90;;;;;;4995135;28;20053;-76
2024/02/26 02:08:27;;;;;;;32.25;17.05;;;3.40;99.90;;;;;;4994859;28;20410;-76
2024/02/26 02:10:54;;;;;;;19.73;10.02;;;3.50;99.90;;;;;;4996149;28;20104;-76
2024/02/26 02:13:21;;;;;;;27.98;14.25;;;3.50;99.90;;;;;;4978559;28;20162;-76
2024/02/26 02:15:48;;;;;;;26.17;12.02;;;3.50;99.90;;;;;;4978776;28;20038;-76
2024/02/26 02:18:15;;;;;;;23.77;13.25;;;3.50;99.90;;;;;;5027598;28;20046;-76
2024/02/26 02:20:42;;;;;;;27.67;12.68;;;3.50;99.90;;;;;;4978863;28;20038;-76
2024/02/26 02:23:09;;;;;;;25.30;12.20;;;3.50;99.90;;;;;;4978835;28;20129;-76
2024/02/26 02:25:36;;;;;;;29.98;13.00;;;3.50;99.90;;;;;;4978533;28;20038;-75
2024/02/26 02:28:04;;;;;;;23.15;11.45;;;3.50;99.90;;;;;;4995948;28;20073;-76
2024/02/26 02:30:33;;;;;;;27.15;11.20;;;3.60;99.90;;;;;;4994536;28;20042;-76
2024/02/26 02:33:00;;;;;;;28.77;14.70;;;3.60;99.90;;;;;;4994220;28;20061;-76
2024/02/26 02:35:27;;;;;;;23.25;12.70;;;3.50;99.90;;;;;;4994199;28;20511;-76
2024/02/26 02:37:57;;;;;;;33.30;15.38;;;3.50;99.90;;;;;;4995682;28;20050;-76
2024/02/26 02:40:24;;;;;;;30.77;12.75;;;3.60;99.90;;;;;;4978143;28;20078;-75
2024/02/26 02:42:51;;;;;;;20.50;9.55;;;3.60;99.90;;;;;;4995565;28;20035;-76
2024/02/26 02:45:18;;;;;;;33.15;13.65;;;3.60;99.90;;;;;;4978332;28;20105;-76
2024/02/26 02:47:45;;;;;;;25.70;12.48;;;3.70;99.90;;;;;;4994450;28;20077;-76
2024/02/26 02:50:12;;;;;;;24.52;10.80;;;3.70;99.90;;;;;;5027108;28;20046;-76
2024/02/26 02:52:39;;;;;;;28.35;11.73;;;3.70;99.90;;;;;;4994072;28;20057;-76
2024/02/26 02:55:06;;;;;;;23.85;10.65;;;3.70;99.90;;;;;;4962232;28;20499;-76
2024/02/26 02:57:33;;;;;;;26.40;12.05;;;3.70;99.90;;;;;;5026523;28;20093;-76
2024/02/26 03:00:00;;;;;;;26.55;12.25;;;3.70;99.90;;;;;;4994293;28;20054;-76
2024/02/26 03:02:28;;;;;;;30.50;12.15;;;3.70;99.90;;;;;;5026528;28;20042;-76
2024/02/26 03:04:55;;;;;;;17.27;9.32;;;3.70;99.90;;;;;;4994066;28;20039;-76
2024/02/26 03:07:22;;;;;;;18.38;9.85;;;3.70;99.90;;;;;;4993831;28;20050;-76
2024/02/26 03:09:49;;;;;;;28.35;13.05;;;3.70;99.90;;;;;;4993890;28;20551;-76
2024/02/26 03:12:16;;;;;;;27.95;13.10;;;3.70;99.90;;;;;;4993960;28;20046;-76
2024/02/26 03:14:43;;;;;;;24.33;12.07;;;3.80;99.90;;;;;;4994791;28;20042;-76
2024/02/26 03:17:10;;;;;;;24.20;12.65;;;3.90;99.90;;;;;;5026528;28;20042;-76
2024/02/26 03:19:37;;;;;;;24.85;12.43;;;3.90;99.90;;;;;;4993518;28;20133;-76
2024/02/26 03:22:04;;;;;;;30.08;13.75;;;4.00;99.90;;;;;;4994904;28;20038;-76
2024/02/26 03:24:31;;;;;;;27.42;14.00;;;4.10;99.90;;;;;;4994590;28;20046;-76
2024/02/26 03:26:58;;;;;;;26.25;13.25;;;4.20;99.90;;;;;;4993735;28;20588;-76
2024/02/26 03:29:25;;;;;;;23.80;12.15;;;4.40;99.90;;;;;;4993360;28;20061;-76
2024/02/26 03:31:52;;;;;;;22.50;11.32;;;4.30;99.90;;;;;;4993298;28;20057;-75
2024/02/26 03:34:19;;;;;;;29.63;14.68;;;4.50;99.90;;;;;;4993419;28;20488;-76
2024/02/26 03:36:47;;;;;;;24.25;13.77;;;4.40;99.90;;;;;;4993274;28;20380;-76
2024/02/26 03:39:13;;;;;;;23.45;13.15;;;4.50;99.90;;;;;;4977240;28;20051;-76
2024/02/26 03:41:41;;;;;;;21.60;11.38;;;4.50;99.90;;;;;;4992039;28;20100;-76
2024/02/26 03:44:08;;;;;;;20.45;11.27;;;4.60;99.90;;;;;;4992149;28;20122;-76
2024/02/26 03:46:35;;;;;;;23.80;11.75;;;4.70;99.90;;;;;;4974235;28;20105;-76
2024/02/26 03:49:02;;;;;;;23.23;11.90;;;4.70;99.90;;;;;;4993939;28;20050;-76
2024/02/26 03:51:31;;;;;;;22.13;13.25;;;4.70;99.90;;;;;;5008185;28;20100;-75
2024/02/26 03:53:58;;;;;;;24.40;12.38;;;4.70;99.90;;;;;;4993158;28;20046;-76
2024/02/26 03:56:26;;;;;;;20.70;11.82;;;4.70;99.90;;;;;;4992799;28;20039;-76
2024/02/26 03:58:53;;;;;;;21.80;13.98;;;4.70;99.90;;;;;;4993060;28;20403;-76
2024/02/26 04:01:20;;;;;;;26.05;13.02;;;4.70;99.90;;;;;;4974886;28;20039;-76
2024/02/26 04:03:47;;;;;;;20.70;11.85;;;4.60;99.90;;;;;;4992362;28;20043;-76
2024/02/26 04:06:15;;;;;;;19.48;11.02;;;4.60;99.90;;;;;;4992797;28;20042;-76
2024/02/26 04:08:42;;;;;;;17.45;9.98;;;4.60;99.90;;;;;;5025067;28;20121;-76
2024/02/26 04:11:09;;;;;;;14.82;8.43;;;4.60;99.90;;;;;;4994079;28;20038;-76
2024/02/26 04:13:39;;;;;;;16.42;9.32;;;4.60;99.90;;;;;;4993770;28;20044;-76
2024/02/26 04:16:06;;;;;;;15.90;8.90;;;4.50;99.90;;;;;;4992673;28;20049;-76
2024/02/26 04:18:33;;;;;;;14.95;8.65;;;4.50;99.90;;;;;;4992469;28;20061;-75
2024/02/26 04:21:00;;;;;;;16.02;9.48;;;4.50;99.90;;;;;;4992485;28;20046;-76
2024/02/26 04:23:28;;;;;;;17.58;6.72;;;4.40;99.90;;;;;;5008666;28;20081;-75
2024/02/26 04:25:55;;;;;;;16.40;9.68;;;4.30;99.90;;;;;;4992585;28;20092;-76
2024/02/26 04:28:25;;;;;;;15.95;8.90;;;4.30;99.90;;;;;;4993485;28;20129;-76
2024/02/26 04:30:52;;;;;;;10.70;7.32;;;4.20;99.90;;;;;;4992276;28;20137;-75
2024/02/26 04:33:19;;;;;;;15.15;8.07;;;4.10;99.90;;;;;;4992373;28;20050;-76
2024/02/26 04:35:46;;;;;;;13.73;8.60;;;4.10;99.90;;;;;;4992334;28;20039;-76
2024/02/26 04:38:13;;;;;;;12.07;7.93;;;4.00;99.90;;;;;;4992010;28;20051;-75
2024/02/26 04:40:40;;;;;;;9.35;6.28;;;4.00;99.90;;;;;;4976052;28;20045;-76
2024/02/26 04:43:07;;;;;;;13.27;7.63;;;3.90;99.90;;;;;;4992419;28;20092;-76
2024/02/26 04:45:34;;;;;;;12.23;8.23;;;3.90;99.90;;;;;;4992179;28;20042;-76
2024/02/26 04:48:02;;;;;;;11.25;7.35;;;3.90;99.90;;;;;;5008345;28;20046;-76
2024/02/26 04:50:29;;;;;;;12.07;7.43;;;3.80;99.90;;;;;;5008370;28;20046;-76
2024/02/26 04:52:56;;;;;;;9.88;6.85;;;3.80;99.90;;;;;;4993320;28;20050;-75
2024/02/26 04:55:23;;;;;;;10.48;8.43;;;3.80;99.90;;;;;;5008454;28;20053;-75
2024/02/26 04:57:50;;;;;;;10.23;6.72;;;3.80;99.90;;;;;;4975621;28;20043;-76
2024/02/26 05:00:18;;;;;;;9.90;6.35;;;3.80;99.90;;;;;;4992103;28;20050;-75
2024/02/26 05:02:45;;;;;;;10.23;6.15;;;3.80;99.90;;;;;;4990941;28;20039;-76
2024/02/26 05:05:13;;;;;;;7.95;5.35;;;3.70;99.90;;;;;;4993064;28;20046;-75
2024/02/26 05:07:42;;;;;;;8.25;7.45;;;3.70;99.90;;;;;;5007980;28;20459;-76
2024/02/26 05:10:09;;;;;;;6.93;5.43;;;3.70;99.90;;;;;;4991883;28;20498;-75
2024/02/26 05:12:36;;;;;;;10.40;8.20;;;3.70;99.90;;;;;;4992889;28;20462;-76
2024/02/26 05:15:03;;;;;;;7.32;5.05;;;3.70;99.90;;;;;;4992982;28;20122;-76
2024/02/26 05:17:30;;;;;;;5.53;4.18;;;3.70;99.90;;;;;;4991581;28;20050;-76
2024/02/26 05:19:57;;;;;;;7.80;5.05;;;3.80;99.90;;;;;;4991665;28;20047;-76
2024/02/26 05:22:24;;;;;;;7.50;6.65;;;3.70;99.90;;;;;;4993117;28;20435;-76
2024/02/26 05:24:52;;;;;;;9.32;6.32;;;3.70;99.90;;;;;;5007814;28;20096;-76
2024/02/26 05:27:19;;;;;;;8.98;5.20;;;3.70;99.90;;;;;;4991697;28;20054;-76
2024/02/26 05:29:46;;;;;;;5.90;5.00;;;3.80;99.90;;;;;;4991485;28;20046;-76
2024/02/26 05:32:13;;;;;;;9.00;5.43;;;3.80;99.90;;;;;;4973370;28;20058;-75
2024/02/26 05:34:41;;;;;;;5.63;3.90;;;3.80;99.90;;;;;;4991546;28;20166;-76
2024/02/26 05:37:08;;;;;;;7.85;7.05;;;3.90;99.90;;;;;;4991620;28;20400;-75
2024/02/26 05:39:35;;;;;;;6.13;4.53;;;3.90;99.90;;;;;;5007940;28;20093;-76
2024/02/26 05:42:02;;;;;;;7.88;5.30;;;3.80;99.90;;;;;;4991447;28;20054;-76
2024/02/26 05:44:29;;;;;;;5.53;3.83;;;3.80;99.90;;;;;;4993331;28;20053;-76
2024/02/26 05:46:56;;;;;;;6.40;4.75;;;3.80;99.90;;;;;;5007830;28;20078;-76
2024/02/26 05:49:23;;;;;;;6.03;4.28;;;3.80;99.90;;;;;;4992736;28;20076;-76
2024/02/26 05:51:50;;;;;;;6.63;4.30;;;3.80;99.90;;;;;;4991305;28;20047;-76
2024/02/26 05:54:17;;;;;;;7.55;5.07;;;3.80;99.90;;;;;;5007780;28;20108;-76
2024/02/26 05:56:44;;;;;;;6.40;4.40;;;3.80;99.90;;;;;;5007464;28;20050;-76
2024/02/26 05:59:11;;;;;;;4.03;3.22;;;3.80;99.90;;;;;;4992663;28;20053;-76
2024/02/26 06:01:38;;;;;;;8.75;5.32;;;3.80;99.90;;;;;;4989781;28;20038;-76
2024/02/26 06:04:05;;;;;;;6.60;5.90;;;3.80;99.90;;;;;;4992278;28;20221;-76
2024/02/26 06:06:33;;;;;;;7.93;4.50;;;3.90;99.90;;;;;;4990739;28;20042;-76
2024/02/26 06:09:00;;;;;;;6.60;3.83;;;3.80;99.90;;;;;;5007615;28;20492;-76
2024/02/26 06:11:28;;;;;;;8.10;4.72;;;3.80;99.90;;;;;;4959235;28;20480;-76
2024/02/26 06:13:55;;;;;;;4.82;3.75;;;3.90;99.90;;;;;;4976869;28;20137;-76
2024/02/26 06:16:22;;;;;;;5.65;3.60;;;3.90;99.90;;;;;;5011253;28;20046;-76
2024/02/26 06:18:49;;;;;;;5.55;5.00;;;4.10;99.90;;;;;;4962529;28;20423;-76
2024/02/26 06:21:16;;;;;;;6.95;5.15;;;4.00;99.90;;;;;;4994795;28;20578;-76
2024/02/26 06:23:43;;;;;;;5.28;3.78;;;4.00;99.90;;;;;;4978416;28;20046;-76
2024/02/26 06:26:10;;;;;;;5.22;4.28;;;3.90;99.90;;;;;;4995847;28;20039;-76
2024/02/26 06:28:40;;;;;;;8.07;6.93;;;3.90;99.90;;;;;;4962543;28;20403;-76
2024/02/26 06:31:07;;;;;;;4.93;3.22;;;4.00;99.90;;;;;;4978629;28;20129;-76
2024/02/26 06:33:34;;;;;;;5.93;4.75;;;4.20;99.90;;;;;;4994578;28;20046;-76
2024/02/26 06:36:01;;;;;;;6.30;3.95;;;3.90;99.90;;;;;;4994428;28;20105;-76
2024/02/26 06:38:28;;;;;;;5.60;4.03;;;3.90;99.90;;;;;;4978179;28;20050;-76
2024/02/26 06:40:56;;;;;;;6.50;5.75;;;3.90;99.90;;;;;;4978047;28;20439;-76
2024/02/26 06:43:23;;;;;;;6.13;4.50;;;3.90;99.90;;;;;;4978131;28;20042;-77
2024/02/26 06:45:50;;;;;;;4.75;3.17;;;4.20;99.90;;;;;;5026818;28;20054;-76
2024/02/26 06:48:17;;;;;;;4.45;3.65;;;3.90;99.90;;;;;;4978092;28;20046;-76
2024/02/26 06:50:44;;;;;;;4.13;2.85;;;4.10;99.90;;;;;;4978294;28;20122;-76
2024/02/26 06:53:11;;;;;;;5.35;4.85;;;4.00;99.90;;;;;;4993833;28;20494;-76
2024/02/26 06:55:40;;;;;;;5.07;3.53;;;4.00;99.90;;;;;;4977985;28;20066;-76
2024/02/26 06:58:07;;;;;;;4.85;3.92;;;4.00;99.90;;;;;;4977859;28;20050;-76
2024/02/26 07:00:34;;;;;;;3.47;2.70;;;4.00;99.90;;;;;;4961930;28;20057;-76
2024/02/26 07:03:01;;;;;;;5.03;3.30;;;4.00;99.90;;;;;;4961575;28;20042;-76
2024/02/26 07:05:31;;;;;;;5.47;3.50;;;4.30;99.90;;;;;;4978163;28;20042;-76
2024/02/26 07:07:58;;;;;;;5.32;3.28;;;4.30;99.90;;;;;;4993668;28;20042;-76
2024/02/26 07:10:25;;;;;;;5.10;3.17;;;4.10;99.90;;;;;;4993856;28;20054;-76
2024/02/26 07:12:53;;;;;;;6.35;3.75;;;4.10;99.90;;;;;;4977456;28;20054;-76
2024/02/26 07:15:19;;;;;;;6.07;3.58;;;4.10;99.90;;;;;;4977658;28;20105;-76
2024/02/26 07:17:47;;;;;;;4.85;4.40;;;4.30;99.90;;;;;;4993678;28;20399;-76
2024/02/26 07:20:15;;;;;;;5.22;3.92;;;4.10;99.90;;;;;;4977382;28;20484;-76
2024/02/26 07:22:43;;;;;;;3.38;2.22;;;4.20;99.90;;;;;;4994963;28;20042;-76
2024/02/26 07:25:13;;;;;;;4.18;3.15;;;4.30;99.90;;;;;;4992580;28;20043;-76
2024/02/26 07:27:40;;;;;;;4.40;3.00;;;4.20;99.90;;;;;;4978060;28;20046;-76
2024/02/26 07:30:10;;;;;;;4.30;3.63;;;4.20;99.90;;;;;;4977307;28;20061;-76
2024/02/26 07:32:37;;;;;;;4.95;4.45;;;4.20;99.90;;;;;;4977313;28;20384;-76
2024/02/26 07:35:05;;;;;;;3.45;2.78;;;4.30;99.90;;;;;;4977307;28;20057;-76
2024/02/26 07:37:32;;;;;;;4.10;3.70;;;4.30;99.90;;;;;;4994495;28;20046;-76
2024/02/26 07:39:59;;;;;;;4.32;3.25;;;4.30;99.90;;;;;;4993195;28;20474;-76
2024/02/26 07:42:26;;;;;;;3.33;2.97;;;4.40;99.90;;;;;;4993068;28;20506;-76
2024/02/26 07:44:53;;;;;;;3.28;2.90;;;4.40;99.90;;;;;;4993038;28;20058;-76
2024/02/26 07:47:21;;;;;;;4.25;3.00;;;4.40;99.90;;;;;;4976971;28;20050;-76
2024/02/26 07:49:48;;;;;;;2.53;2.08;;;4.40;99.90;;;;;;4976794;28;20109;-76
2024/02/26 07:52:15;;;;;;;4.45;3.42;;;4.40;99.90;;;;;;4960664;28;20054;-76
2024/02/26 07:54:42;;;;;;;4.80;3.35;;;4.50;99.90;;;;;;4992807;28;20101;-76
2024/02/26 07:57:09;;;;;;;3.58;2.85;;;4.70;99.90;;;;;;4992627;28;20046;-76
2024/02/26 07:59:36;;;;;;;3.25;2.95;;;4.50;99.90;;;;;;4976618;28;20101;-76
2024/02/26 08:02:05;;;;;;;4.28;3.90;;;4.60;99.90;;;;;;4992548;28;20451;-76
2024/02/26 08:04:32;;;;;;;3.38;2.83;;;4.60;99.90;;;;;;4977143;28;20046;-76
2024/02/26 08:06:59;;;;;;;3.65;2.60;;;4.70;99.90;;;;;;4976485;28;20046;-76
2024/02/26 08:09:27;;;;;;;3.88;3.33;;;4.80;99.90;;;;;;4993997;28;20047;-76
2024/02/26 08:11:55;;;;;;;4.38;3.42;;;4.90;99.90;;;;;;4960458;28;20053;-76
2024/02/26 08:14:22;;;;;;;3.35;2.80;;;4.80;99.90;;;;;;4992419;28;20104;-76
2024/02/26 08:16:49;;;;;;;3.60;2.85;;;4.80;99.90;;;;;;4992645;28;20043;-76
2024/02/26 08:19:17;;;;;;;4.20;3.17;;;4.90;99.90;;;;;;4960162;28;20047;-76
2024/02/26 08:21:44;;;;;;;4.05;3.65;;;4.90;99.90;;;;;;4976426;28;20146;-76
2024/02/26 08:24:12;;;;;;;5.05;3.65;;;5.00;99.90;;;;;;4976005;28;20042;-76
2024/02/26 08:26:39;;;;;;;5.32;3.17;;;5.00;99.90;;;;;;4992355;28;20498;-76
2024/02/26 08:29:06;;;;;;;4.45;3.97;;;5.00;99.90;;;;;;4976000;28;20462;-76
2024/02/26 08:31:33;;;;;;;6.22;3.67;;;5.10;99.90;;;;;;4976256;28;20062;-76
2024/02/26 08:34:00;;;;;;;5.03;3.58;;;5.10;99.90;;;;;;4992382;28;20500;-76
2024/02/26 08:36:27;;;;;;;4.75;2.97;;;5.20;99.90;;;;;;4976080;28;20054;-76
2024/02/26 08:38:54;;;;;;;3.67;3.00;;;5.20;99.90;;;;;;4975932;28;20555;-76
2024/02/26 08:41:21;;;;;;;3.83;3.17;;;5.30;99.90;;;;;;4959962;28;20046;-76
2024/02/26 08:43:49;;;;;;;3.85;2.85;;;5.30;99.90;;;;;;4975945;28;20484;-76
2024/02/26 08:46:16;;;;;;;4.00;3.08;;;5.30;99.90;;;;;;4959846;28;20057;-76
2024/02/26 08:48:43;;;;;;;3.88;2.67;;;5.40;99.90;;;;;;4975857;28;20053;-76
2024/02/26 08:51:10;;;;;;;3.58;2.97;;;5.40;99.90;;;;;;5024565;28;20046;-76
2024/02/26 08:53:37;;;;;;;3.25;2.95;;;5.40;99.90;;;;;;4975996;28;20050;-76
2024/02/26 08:56:08;;;;;;;;;;;5.40;99.90;;;;;;4976599;28;20065;-77
2024/02/26 08:58:35;;;;;;;4.47;3.00;;;5.40;99.90;;;;;;4991837;28;19942;-76
2024/02/26 09:01:03;;;;;;;3.15;2.85;;;5.50;99.90;;;;;;4959817;28;20050;-76
2024/02/26 09:03:30;;;;;;;4.47;2.78;;;5.50;99.90;;;;;;4975831;28;20073;-76
2024/02/26 09:05:57;;;;;;;5.53;3.67;;;5.60;99.90;;;;;;4991826;28;20093;-76
2024/02/26 09:08:24;;;;;;;4.45;4.05;;;5.60;99.90;;;;;;4991514;28;20464;-76
2024/02/26 09:10:51;;;;;;;3.80;3.03;;;5.70;99.90;;;;;;4959560;28;20050;-76
2024/02/26 09:13:18;;;;;;;3.55;2.78;;;5.70;99.90;;;;;;4991439;28;20046;-76
2024/02/26 09:15:45;;;;;;;3.58;3.13;;;5.80;99.90;;;;;;4991623;28;20503;-76
2024/02/26 09:18:13;;;;;;;3.35;2.63;;;5.80;99.90;;;;;;4975331;28;20495;-76
2024/02/26 09:20:40;;;;;;;3.45;2.40;;;5.90;99.90;;;;;;4975675;28;20038;-76
2024/02/26 09:23:07;;;;;;;4.30;3.20;;;5.90;99.90;;;;;;4975567;28;20045;-76
2024/02/26 09:25:35;;;;;;;3.40;2.70;;;6.00;99.90;;;;;;4975666;28;20038;-77
2024/02/26 09:28:02;;;;;;;4.60;2.85;;;6.00;99.90;;;;;;4975475;28;20057;-76
2024/02/26 09:30:29;;;;;;;4.35;3.95;;;6.00;99.90;;;;;;4959233;28;20408;-76
2024/02/26 09:32:56;;;;;;;4.60;3.58;;;6.10;99.90;;;;;;4991417;28;20050;-76
2024/02/26 09:35:23;;;;;;;5.60;3.55;;;6.10;99.90;;;;;;4991150;28;20573;-76
2024/02/26 09:37:50;;;;;;;3.67;2.53;;;6.10;99.90;;;;;;4991284;28;20488;-76
2024/02/26 09:40:17;;;;;;;3.08;2.75;;;6.20;99.90;;;;;;4975055;28;20046;-76
2024/02/26 09:42:45;;;;;;;4.68;2.70;;;6.20;99.90;;;;;;4975342;28;20105;-76
2024/02/26 09:45:19;;;;;;;6.15;2.75;;;6.20;99.90;;;;;;4975305;28;20046;-76
2024/02/26 09:47:48;;;;;;;4.63;3.30;;;6.30;99.90;;;;;;4992760;28;20061;-76
2024/02/26 09:50:17;;;;;;;4.03;3.08;;;6.20;99.90;;;;;;4996157;28;20046;-77
2024/02/26 09:52:45;;;;;;;4.07;3.00;;;6.20;99.90;;;;;;4995162;28;20046;-77
2024/02/26 09:55:12;;;;;;;5.65;4.32;;;6.20;99.90;;;;;;4978826;28;20046;-76
2024/02/26 09:57:46;;;;;;;5.50;3.70;;;6.20;99.90;;;;;;4978895;28;20051;-76
2024/02/26 10:00:19;;;;;;;4.03;3.28;;;6.30;99.90;;;;;;4994822;28;20050;-76
2024/02/26 10:02:49;;;;;;;3.70;3.33;;;6.30;99.90;;;;;;4977444;28;20137;-76
2024/02/26 10:05:19;;;;;;;5.20;3.92;;;6.40;99.90;;;;;;5010537;28;20058;-76
2024/02/26 10:07:47;;;;;;;4.32;3.92;;;6.40;99.90;;;;;;4993200;28;20389;-76
2024/02/26 10:10:15;;;;;;;4.18;3.25;;;6.50;99.90;;;;;;4977040;28;20046;-76
2024/02/26 10:12:41;;;;;;;5.00;3.13;;;6.50;99.90;;;;;;5009523;28;20049;-76
2024/02/26 10:15:09;;;;;;;4.60;4.18;;;6.40;99.90;;;;;;5026182;28;20438;-76
2024/02/26 10:17:38;;;;;;;5.03;4.43;;;6.50;99.90;;;;;;5009089;28;20482;-76
2024/02/26 10:20:13;;;;;;;3.17;2.38;;;6.50;99.90;;;;;;5009352;28;20071;-76
2024/02/26 10:22:41;;;;;;;5.93;4.00;;;6.50;99.90;;;;;;4995831;28;20126;-77
2024/02/26 10:25:08;;;;;;;6.47;4.70;;;6.50;99.90;;;;;;4994593;28;20196;-76
2024/02/26 10:27:36;;;;;;;4.13;3.80;;;6.50;99.90;;;;;;4994282;28;20415;-76
2024/02/26 10:30:04;;;;;;;5.18;3.47;;;6.60;99.90;;;;;;5010567;28;20118;-76
2024/02/26 10:32:32;;;;;;;4.93;3.70;;;6.60;99.90;;;;;;5010566;28;20093;-76
2024/02/26 10:34:59;;;;;;;4.00;3.35;;;6.60;99.90;;;;;;5010514;28;20097;-76
2024/02/26 10:37:26;;;;;;;4.20;3.17;;;6.70;99.90;;;;;;5010496;28;20480;-76
2024/02/26 10:39:56;;;;;;;5.80;4.07;;;6.60;99.90;;;;;;5010245;28;20097;-76
2024/02/26 10:42:25;;;;;;;4.75;3.15;;;6.60;99.90;;;;;;4995404;28;20042;-76
2024/02/26 10:44:52;;;;;;;5.00;3.47;;;6.70;99.90;;;;;;4994241;28;20054;-76
2024/02/26 10:47:20;;;;;;;6.32;4.10;;;6.60;99.90;;;;;;5010339;28;20052;-76
2024/02/26 10:49:50;;;;;;;5.32;4.65;;;6.70;99.90;;;;;;4994345;28;20425;-76
2024/02/26 10:52:19;;;;;;;6.72;4.40;;;6.70;99.90;;;;;;5026209;28;20137;-76
2024/02/26 10:54:50;;;;;;;7.07;3.78;;;6.80;99.90;;;;;;5010518;28;20608;-76
2024/02/26 10:57:18;;;;;;;3.45;2.55;;;6.80;99.90;;;;;;4994051;28;20518;-76
2024/02/26 10:59:46;;;;;;;7.35;4.78;;;6.80;99.90;;;;;;4994026;28;20482;-77
2024/02/26 11:02:14;;;;;;;4.35;3.38;;;6.90;99.90;;;;;;5010093;28;20074;-76
2024/02/26 11:04:41;;;;;;;6.13;5.13;;;6.90;99.90;;;;;;5009984;28;20380;-77
2024/02/26 11:07:10;;;;;;;4.20;3.78;;;7.00;99.90;;;;;;5010088;28;20460;-76
2024/02/26 11:09:43;;;;;;;4.82;4.18;;;7.10;99.90;;;;;;4993614;28;20412;-77
2024/02/26 11:12:12;;;;;;;5.18;3.78;;;7.10;99.90;;;;;;5009137;28;20145;-77
2024/02/26 11:14:46;;;;;;;4.63;3.22;;;7.20;99.90;;;;;;5009728;28;20070;-77
2024/02/26 11:17:16;;;;;;;5.13;3.85;;;7.30;99.90;;;;;;5009831;28;20154;-76
2024/02/26 11:19:46;;;;;;;3.83;3.17;;;7.50;99.90;;;;;;5009861;28;20065;-77
2024/02/26 11:22:13;;;;;;;3.78;3.35;;;7.50;99.90;;;;;;5009704;28;20057;-76
2024/02/26 11:24:44;;;;;;;4.72;4.10;;;7.70;99.90;;;;;;4993392;28;20046;-76
2024/02/26 11:27:12;;;;;;;6.30;4.63;;;7.70;99.90;;;;;;4993419;28;20451;-76
2024/02/26 11:29:50;;;;;;;5.15;4.22;;;7.80;99.90;;;;;;5009442;28;20046;-76
2024/02/26 11:32:18;;;;;;;5.50;3.55;;;7.80;99.90;;;;;;4993451;28;20051;-77
2024/02/26 11:34:45;;;;;;;4.40;3.47;;;7.80;99.90;;;;;;5009397;28;20057;-76
2024/02/26 11:37:15;;;;;;;4.03;3.20;;;7.80;99.90;;;;;;4993326;28;20050;-76
2024/02/26 11:39:42;;;;;;;5.38;3.72;;;7.80;99.90;;;;;;5009215;28;20057;-76
2024/02/26 11:42:10;;;;;;;3.20;2.55;;;7.80;99.90;;;;;;4994434;28;20038;-77
2024/02/26 11:44:38;;;;;;;6.32;2.78;;;7.80;99.90;;;;;;5006661;28;20039;-76
2024/02/26 11:47:12;;;;;;;3.33;2.72;;;7.90;99.90;;;;;;4960833;28;20069;-76
2024/02/26 11:49:39;;;;;;;5.35;3.17;;;7.90;99.90;;;;;;5007418;28;20058;-76
2024/02/26 11:52:09;;;;;;;3.97;3.47;;;7.90;99.90;;;;;;5007301;28;20411;-77
2024/02/26 11:54:52;;;;;;;4.53;3.45;;;8.10;99.90;;;;;;5007203;28;20049;-76
2024/02/26 11:57:29;;;;;;;5.50;2.83;;;8.30;99.90;;;;;;5023874;28;20121;-77
2024/02/26 12:00:11;;;;;;;4.78;3.53;;;8.50;99.90;;;;;;4991347;28;20093;-76
2024/02/26 12:02:46;;;;;;;5.18;3.00;;;8.70;99.90;;;;;;5024217;28;20050;-77
2024/02/26 12:05:27;;;;;;;5.28;2.80;;;8.80;99.90;;;;;;4993024;28;20061;-76
2024/02/26 12:07:59;;;;;;;4.47;3.25;;;8.90;99.90;;;;;;5025337;28;20049;-77
2024/02/26 12:10:28;;;;;;;3.42;2.92;;;9.00;99.90;;;;;;5008146;28;20046;-76
2024/02/26 12:13:13;;;;;;;5.03;3.40;;;8.90;99.90;;;;;;5008922;28;20141;-76
2024/02/26 12:15:45;;;;;;;4.80;3.67;;;8.80;99.90;;;;;;4992425;28;20096;-77
2024/02/26 12:18:17;;;;;;;3.80;3.00;;;8.70;99.90;;;;;;5008584;28;20081;-77
2024/02/26 12:20:44;;;;;;;4.90;3.53;;;8.50;99.90;;;;;;5008413;28;20050;-76
2024/02/26 12:23:19;;;;;;;4.18;3.75;;;8.30;99.90;;;;;;4992425;28;20093;-77
2024/02/26 12:25:48;;;;;;;3.55;2.78;;;8.20;99.90;;;;;;4992157;28;20054;-77
2024/02/26 12:28:15;;;;;;;4.05;3.50;;;8.20;99.90;;;;;;5008225;28;20048;-76
2024/02/26 12:30:42;;;;;;;4.68;3.70;;;8.10;99.90;;;;;;4992232;28;20047;-76
2024/02/26 12:33:09;;;;;;;4.45;3.55;;;8.00;99.90;;;;;;4991926;28;20412;-77
2024/02/26 12:35:36;;;;;;;5.22;3.60;;;7.90;99.90;;;;;;4987306;28;20479;-76
2024/02/26 12:38:04;;;;;;;4.95;4.35;;;7.90;99.90;;;;;;4997504;28;20069;-76
2024/02/26 12:40:31;;;;;;;4.70;2.70;;;7.90;99.90;;;;;;4972536;28;20042;-77
2024/02/26 12:42:58;;;;;;;5.43;3.13;;;8.00;99.90;;;;;;5005167;28;20039;-77
2024/02/26 12:45:26;;;;;;;3.95;3.50;;;7.90;99.90;;;;;;4988650;28;20074;-77
2024/02/26 12:47:53;;;;;;;5.60;4.15;;;7.90;99.90;;;;;;5004451;28;20042;-76
2024/02/26 12:50:20;;;;;;;7.35;4.90;;;7.90;99.90;;;;;;4988651;28;20047;-77
2024/02/26 12:52:48;;;;;;;4.13;3.63;;;7.90;99.90;;;;;;4972220;28;20070;-77